sensor_id;sensor_type;location;lat;lon;timestamp;P1;durP1;ratioP1;P2;durP2;ratioP2
56413;SDS011;42318;48.452;19.526;2023-01-20T00:05:25;5.68;;;3.75;;
56413;SDS011;42318;48.452;19.526;2023-01-20T00:12:56;6.53;;;4.05;;
56413;SDS011;42318;48.452;19.526;2023-01-20T00:20:27;5.97;;;4.05;;
56413;SDS011;42318;48.452;19.526;2023-01-20T00:27:57;6.50;;;4.55;;
56413;SDS011;42318;48.452;19.526;2023-01-20T00:35:28;5.85;;;4.28;;
56413;SDS011;42318;48.452;19.526;2023-01-20T00:42:59;7.00;;;4.07;;
56413;SDS011;42318;48.452;19.526;2023-01-20T00:50:30;4.97;;;3.58;;
56413;SDS011;42318;48.452;19.526;2023-01-20T00:58:01;5.05;;;3.58;;
56413;SDS011;42318;48.452;19.526;2023-01-20T01:05:31;6.03;;;4.07;;
56413;SDS011;42318;48.452;19.526;2023-01-20T01:13:03;5.68;;;4.32;;
56413;SDS011;42318;48.452;19.526;2023-01-20T01:20:34;6.22;;;4.05;;
56413;SDS011;42318;48.452;19.526;2023-01-20T01:28:08;8.10;;;4.47;;
56413;SDS011;42318;48.452;19.526;2023-01-20T01:35:39;5.75;;;4.03;;
56413;SDS011;42318;48.452;19.526;2023-01-20T01:43:15;5.97;;;4.15;;
56413;SDS011;42318;48.452;19.526;2023-01-20T01:50:53;6.63;;;4.03;;
56413;SDS011;42318;48.452;19.526;2023-01-20T01:58:31;4.93;;;3.80;;
56413;SDS011;42318;48.452;19.526;2023-01-20T02:06:05;5.32;;;3.78;;
56413;SDS011;42318;48.452;19.526;2023-01-20T02:13:37;7.60;;;4.33;;
56413;SDS011;42318;48.452;19.526;2023-01-20T02:29:23;5.18;;;3.67;;
56413;SDS011;42318;48.452;19.526;2023-01-20T02:37:02;5.20;;;3.30;;
56413;SDS011;42318;48.452;19.526;2023-01-20T02:44:53;5.30;;;3.45;;
56413;SDS011;42318;48.452;19.526;2023-01-20T02:52:48;5.18;;;3.38;;
56413;SDS011;42318;48.452;19.526;2023-01-20T03:00:24;5.95;;;4.45;;
56413;SDS011;42318;48.452;19.526;2023-01-20T03:08:00;5.13;;;3.40;;
56413;SDS011;42318;48.452;19.526;2023-01-20T03:15:36;5.80;;;4.10;;
56413;SDS011;42318;48.452;19.526;2023-01-20T03:23:16;5.65;;;3.53;;
56413;SDS011;42318;48.452;19.526;2023-01-20T03:30:47;4.78;;;3.08;;
56413;SDS011;42318;48.452;19.526;2023-01-20T03:38:18;5.03;;;3.50;;
56413;SDS011;42318;48.452;19.526;2023-01-20T03:46:02;5.25;;;3.90;;
56413;SDS011;42318;48.452;19.526;2023-01-20T03:53:45;4.25;;;2.90;;
56413;SDS011;42318;48.452;19.526;2023-01-20T04:01:22;4.47;;;2.80;;
56413;SDS011;42318;48.452;19.526;2023-01-20T04:09:09;4.47;;;3.10;;
56413;SDS011;42318;48.452;19.526;2023-01-20T04:16:49;5.22;;;3.45;;
56413;SDS011;42318;48.452;19.526;2023-01-20T04:24:26;4.65;;;3.15;;
56413;SDS011;42318;48.452;19.526;2023-01-20T04:32:05;3.95;;;3.00;;
56413;SDS011;42318;48.452;19.526;2023-01-20T04:39:36;5.32;;;3.50;;
56413;SDS011;42318;48.452;19.526;2023-01-20T04:47:07;5.53;;;3.13;;
56413;SDS011;42318;48.452;19.526;2023-01-20T04:54:38;4.65;;;3.03;;
56413;SDS011;42318;48.452;19.526;2023-01-20T05:02:08;4.15;;;2.90;;
56413;SDS011;42318;48.452;19.526;2023-01-20T05:09:39;4.45;;;2.97;;
56413;SDS011;42318;48.452;19.526;2023-01-20T05:17:10;3.72;;;2.70;;
56413;SDS011;42318;48.452;19.526;2023-01-20T05:24:41;3.47;;;2.67;;
56413;SDS011;42318;48.452;19.526;2023-01-20T05:32:11;4.10;;;2.97;;
56413;SDS011;42318;48.452;19.526;2023-01-20T05:39:42;4.63;;;2.72;;
56413;SDS011;42318;48.452;19.526;2023-01-20T05:47:13;4.80;;;2.53;;
56413;SDS011;42318;48.452;19.526;2023-01-20T05:54:44;4.82;;;2.60;;
56413;SDS011;42318;48.452;19.526;2023-01-20T06:02:15;3.80;;;2.80;;
56413;SDS011;42318;48.452;19.526;2023-01-20T06:09:48;3.70;;;2.60;;
56413;SDS011;42318;48.452;19.526;2023-01-20T06:17:18;3.58;;;2.47;;
56413;SDS011;42318;48.452;19.526;2023-01-20T06:24:49;6.65;;;2.83;;
56413;SDS011;42318;48.452;19.526;2023-01-20T06:32:21;3.35;;;2.38;;
56413;SDS011;42318;48.452;19.526;2023-01-20T06:39:52;3.35;;;2.35;;
56413;SDS011;42318;48.452;19.526;2023-01-20T06:47:22;3.30;;;2.30;;
56413;SDS011;42318;48.452;19.526;2023-01-20T06:54:53;4.30;;;2.58;;
56413;SDS011;42318;48.452;19.526;2023-01-20T07:02:24;3.92;;;2.53;;
56413;SDS011;42318;48.452;19.526;2023-01-20T07:09:55;3.22;;;2.15;;
56413;SDS011;42318;48.452;19.526;2023-01-20T07:17:26;3.28;;;2.33;;
56413;SDS011;42318;48.452;19.526;2023-01-20T07:24:56;3.10;;;2.25;;
56413;SDS011;42318;48.452;19.526;2023-01-20T07:32:30;4.00;;;2.40;;
56413;SDS011;42318;48.452;19.526;2023-01-20T07:40:01;3.42;;;2.40;;
56413;SDS011;42318;48.452;19.526;2023-01-20T07:47:32;4.65;;;2.20;;
56413;SDS011;42318;48.452;19.526;2023-01-20T07:55:02;3.30;;;2.40;;
56413;SDS011;42318;48.452;19.526;2023-01-20T08:02:35;3.97;;;2.38;;
56413;SDS011;42318;48.452;19.526;2023-01-20T08:10:09;4.45;;;2.45;;
56413;SDS011;42318;48.452;19.526;2023-01-20T08:17:40;3.55;;;2.45;;
56413;SDS011;42318;48.452;19.526;2023-01-20T08:25:11;3.60;;;2.55;;
56413;SDS011;42318;48.452;19.526;2023-01-20T08:32:42;3.60;;;2.45;;
56413;SDS011;42318;48.452;19.526;2023-01-20T08:40:13;3.25;;;2.38;;
56413;SDS011;42318;48.452;19.526;2023-01-20T08:47:43;2.92;;;2.13;;
56413;SDS011;42318;48.452;19.526;2023-01-20T08:55:15;4.28;;;2.50;;
56413;SDS011;42318;48.452;19.526;2023-01-20T09:02:46;3.63;;;2.70;;
56413;SDS011;42318;48.452;19.526;2023-01-20T09:10:17;3.75;;;2.45;;
56413;SDS011;42318;48.452;19.526;2023-01-20T09:17:49;3.85;;;2.50;;
56413;SDS011;42318;48.452;19.526;2023-01-20T09:25:20;3.72;;;2.50;;
56413;SDS011;42318;48.452;19.526;2023-01-20T09:32:50;4.47;;;2.88;;
56413;SDS011;42318;48.452;19.526;2023-01-20T09:40:24;3.25;;;2.45;;
56413;SDS011;42318;48.452;19.526;2023-01-20T09:48:34;4.45;;;2.70;;
56413;SDS011;42318;48.452;19.526;2023-01-20T09:56:29;4.38;;;2.20;;
56413;SDS011;42318;48.452;19.526;2023-01-20T10:04:19;3.28;;;2.45;;
56413;SDS011;42318;48.452;19.526;2023-01-20T10:11:59;3.67;;;2.42;;
56413;SDS011;42318;48.452;19.526;2023-01-20T10:19:37;3.45;;;2.40;;
56413;SDS011;42318;48.452;19.526;2023-01-20T10:27:15;4.43;;;2.40;;
56413;SDS011;42318;48.452;19.526;2023-01-20T10:34:46;3.75;;;2.53;;
56413;SDS011;42318;48.452;19.526;2023-01-20T10:42:20;3.92;;;2.38;;
56413;SDS011;42318;48.452;19.526;2023-01-20T10:57:31;3.30;;;2.30;;
56413;SDS011;42318;48.452;19.526;2023-01-20T11:05:15;3.07;;;2.33;;
56413;SDS011;42318;48.452;19.526;2023-01-20T11:12:53;3.47;;;2.78;;
56413;SDS011;42318;48.452;19.526;2023-01-20T11:20:26;3.55;;;2.80;;
56413;SDS011;42318;48.452;19.526;2023-01-20T11:27:57;3.67;;;2.50;;
56413;SDS011;42318;48.452;19.526;2023-01-20T11:35:28;4.07;;;2.45;;
56413;SDS011;42318;48.452;19.526;2023-01-20T11:42:59;3.78;;;2.35;;
56413;SDS011;42318;48.452;19.526;2023-01-20T11:50:31;2.60;;;1.90;;
56413;SDS011;42318;48.452;19.526;2023-01-20T11:58:11;3.70;;;2.08;;
56413;SDS011;42318;48.452;19.526;2023-01-20T12:14:14;3.45;;;2.63;;
56413;SDS011;42318;48.452;19.526;2023-01-20T12:21:52;3.63;;;2.53;;
56413;SDS011;42318;48.452;19.526;2023-01-20T12:29:44;2.92;;;2.25;;
56413;SDS011;42318;48.452;19.526;2023-01-20T12:45:03;3.95;;;2.30;;
56413;SDS011;42318;48.452;19.526;2023-01-20T12:52:43;3.85;;;2.70;;
56413;SDS011;42318;48.452;19.526;2023-01-20T13:08:09;3.60;;;2.60;;
56413;SDS011;42318;48.452;19.526;2023-01-20T13:16:01;3.65;;;2.35;;
56413;SDS011;42318;48.452;19.526;2023-01-20T13:23:40;3.50;;;2.50;;
56413;SDS011;42318;48.452;19.526;2023-01-20T13:31:31;4.50;;;2.83;;
56413;SDS011;42318;48.452;19.526;2023-01-20T13:55:25;3.55;;;2.33;;
56413;SDS011;42318;48.452;19.526;2023-01-20T14:02:57;2.88;;;2.13;;
56413;SDS011;42318;48.452;19.526;2023-01-20T14:10:28;3.15;;;2.42;;
56413;SDS011;42318;48.452;19.526;2023-01-20T14:17:59;3.97;;;2.53;;
56413;SDS011;42318;48.452;19.526;2023-01-20T14:25:30;3.97;;;2.55;;
56413;SDS011;42318;48.452;19.526;2023-01-20T14:33:01;3.72;;;2.22;;
56413;SDS011;42318;48.452;19.526;2023-01-20T14:40:37;3.03;;;2.13;;
56413;SDS011;42318;48.452;19.526;2023-01-20T14:48:12;3.35;;;2.15;;
56413;SDS011;42318;48.452;19.526;2023-01-20T14:55:55;3.45;;;2.38;;
56413;SDS011;42318;48.452;19.526;2023-01-20T15:03:30;2.95;;;1.95;;
56413;SDS011;42318;48.452;19.526;2023-01-20T15:26:43;3.47;;;2.72;;
56413;SDS011;42318;48.452;19.526;2023-01-20T15:34:15;4.90;;;3.67;;
56413;SDS011;42318;48.452;19.526;2023-01-20T15:41:46;8.15;;;4.53;;
56413;SDS011;42318;48.452;19.526;2023-01-20T15:49:18;11.37;;;7.67;;
56413;SDS011;42318;48.452;19.526;2023-01-20T15:56:49;10.50;;;7.10;;
56413;SDS011;42318;48.452;19.526;2023-01-20T16:04:20;8.15;;;6.22;;
56413;SDS011;42318;48.452;19.526;2023-01-20T16:11:51;9.55;;;5.97;;
56413;SDS011;42318;48.452;19.526;2023-01-20T16:19:22;6.88;;;5.18;;
56413;SDS011;42318;48.452;19.526;2023-01-20T16:26:53;7.65;;;5.50;;
56413;SDS011;42318;48.452;19.526;2023-01-20T16:34:23;7.22;;;4.85;;
56413;SDS011;42318;48.452;19.526;2023-01-20T16:41:54;7.30;;;4.45;;
56413;SDS011;42318;48.452;19.526;2023-01-20T16:49:25;6.55;;;4.55;;
56413;SDS011;42318;48.452;19.526;2023-01-20T16:56:56;6.20;;;4.35;;
56413;SDS011;42318;48.452;19.526;2023-01-20T17:04:26;7.55;;;4.53;;
56413;SDS011;42318;48.452;19.526;2023-01-20T17:11:58;6.97;;;4.67;;
56413;SDS011;42318;48.452;19.526;2023-01-20T17:19:29;7.47;;;4.95;;
56413;SDS011;42318;48.452;19.526;2023-01-20T17:27:00;5.55;;;4.20;;
56413;SDS011;42318;48.452;19.526;2023-01-20T17:34:31;6.55;;;4.60;;
56413;SDS011;42318;48.452;19.526;2023-01-20T17:42:02;7.95;;;4.60;;
56413;SDS011;42318;48.452;19.526;2023-01-20T17:49:32;9.02;;;4.68;;
56413;SDS011;42318;48.452;19.526;2023-01-20T17:57:03;5.55;;;4.05;;
56413;SDS011;42318;48.452;19.526;2023-01-20T18:04:34;7.93;;;4.30;;
56413;SDS011;42318;48.452;19.526;2023-01-20T18:12:05;7.82;;;4.82;;
56413;SDS011;42318;48.452;19.526;2023-01-20T18:19:35;6.88;;;4.30;;
56413;SDS011;42318;48.452;19.526;2023-01-20T18:27:06;5.60;;;4.13;;
56413;SDS011;42318;48.452;19.526;2023-01-20T18:34:37;6.72;;;4.03;;
56413;SDS011;42318;48.452;19.526;2023-01-20T18:42:08;5.72;;;3.97;;
56413;SDS011;42318;48.452;19.526;2023-01-20T18:49:39;6.25;;;4.18;;
56413;SDS011;42318;48.452;19.526;2023-01-20T18:57:09;5.40;;;4.20;;
56413;SDS011;42318;48.452;19.526;2023-01-20T19:04:40;6.32;;;4.07;;
56413;SDS011;42318;48.452;19.526;2023-01-20T19:12:11;7.32;;;4.40;;
56413;SDS011;42318;48.452;19.526;2023-01-20T19:19:42;5.82;;;4.15;;
56413;SDS011;42318;48.452;19.526;2023-01-20T19:27:17;5.78;;;4.05;;
56413;SDS011;42318;48.452;19.526;2023-01-20T19:34:48;6.03;;;4.32;;
56413;SDS011;42318;48.452;19.526;2023-01-20T19:42:19;8.43;;;5.15;;
56413;SDS011;42318;48.452;19.526;2023-01-20T19:49:50;6.57;;;4.15;;
56413;SDS011;42318;48.452;19.526;2023-01-20T19:57:21;6.75;;;4.60;;
56413;SDS011;42318;48.452;19.526;2023-01-20T20:04:51;8.32;;;4.90;;
56413;SDS011;42318;48.452;19.526;2023-01-20T20:12:22;8.25;;;4.75;;
56413;SDS011;42318;48.452;19.526;2023-01-20T20:19:53;7.60;;;4.97;;
56413;SDS011;42318;48.452;19.526;2023-01-20T20:27:24;7.93;;;5.18;;
56413;SDS011;42318;48.452;19.526;2023-01-20T20:34:54;8.23;;;4.93;;
56413;SDS011;42318;48.452;19.526;2023-01-20T20:42:27;8.85;;;5.47;;
56413;SDS011;42318;48.452;19.526;2023-01-20T20:49:59;7.65;;;5.20;;
56413;SDS011;42318;48.452;19.526;2023-01-20T20:57:30;8.60;;;5.00;;
56413;SDS011;42318;48.452;19.526;2023-01-20T21:05:02;7.90;;;5.07;;
56413;SDS011;42318;48.452;19.526;2023-01-20T21:12:33;7.32;;;5.25;;
56413;SDS011;42318;48.452;19.526;2023-01-20T21:20:04;7.13;;;4.78;;
56413;SDS011;42318;48.452;19.526;2023-01-20T21:27:36;7.78;;;5.07;;
56413;SDS011;42318;48.452;19.526;2023-01-20T21:35:07;7.72;;;4.72;;
56413;SDS011;42318;48.452;19.526;2023-01-20T21:42:39;8.13;;;5.05;;
56413;SDS011;42318;48.452;19.526;2023-01-20T21:50:10;7.28;;;4.80;;
56413;SDS011;42318;48.452;19.526;2023-01-20T21:57:59;7.85;;;4.53;;
56413;SDS011;42318;48.452;19.526;2023-01-20T22:05:30;8.15;;;5.13;;
56413;SDS011;42318;48.452;19.526;2023-01-20T22:13:01;7.28;;;4.57;;
56413;SDS011;42318;48.452;19.526;2023-01-20T22:20:31;8.25;;;5.28;;
56413;SDS011;42318;48.452;19.526;2023-01-20T22:28:02;6.55;;;4.38;;
56413;SDS011;42318;48.452;19.526;2023-01-20T22:35:33;7.68;;;4.85;;
56413;SDS011;42318;48.452;19.526;2023-01-20T22:43:04;7.32;;;4.65;;
56413;SDS011;42318;48.452;19.526;2023-01-20T22:50:35;7.15;;;4.50;;
56413;SDS011;42318;48.452;19.526;2023-01-20T22:58:06;7.80;;;4.80;;
56413;SDS011;42318;48.452;19.526;2023-01-20T23:05:36;7.07;;;4.28;;
56413;SDS011;42318;48.452;19.526;2023-01-20T23:13:07;8.00;;;5.13;;
56413;SDS011;42318;48.452;19.526;2023-01-20T23:20:38;6.93;;;4.68;;
56413;SDS011;42318;48.452;19.526;2023-01-20T23:28:09;6.57;;;4.40;;
56413;SDS011;42318;48.452;19.526;2023-01-20T23:35:40;8.32;;;4.75;;
56413;SDS011;42318;48.452;19.526;2023-01-20T23:43:11;8.75;;;4.97;;
56413;SDS011;42318;48.452;19.526;2023-01-20T23:50:42;6.13;;;4.78;;
56413;SDS011;42318;48.452;19.526;2023-01-20T23:58:13;7.80;;;5.13;;
